Etusivu
METAR-TAF:

METAR-TAF

Lentoasemat :

Aalborgin lentoasema

Aalborg, Tanska

Leveyspiiri: 57-06N, Pituuspiiri: 009-51E, korkeus merenpinnasta: 3 m

Tämänhetkinen sää

Tämä raportti tehtiin 20 minuuttia sitten, kello 22.11 UTC
Tuuli 15 kn lännestä
Lämpötila 15°C
Kosteus 88%
Ilmanpaine 1016 hPa
Näkyvyys 10 km tai enemmän
Pilvistä 1500 ft:n korkeudessa

METAR: EKYT 172211Z 26015KT 9999 OVC015 15/13 Q1016

Aika: 00:31 (22:31 UTC)

Sääennuste

Tämä raportti tehtiin 2 tuntia ja 27 minuuttia sitten, kello 20.04 UTC
Ennuste voimassa 17. päivästä klo 21 UTC - 18. päivään klo 21 UTC
Tuuli 14 kn lännestä
Näkyvyys 10 km tai enemmän
Hajanaisia pilviä 3000 ft:n korkeudessa

TAF: EKYT 172004Z 1721/1821 27014KT 9999 SCT030

Säähavainnot ja -ennusteet yli 4000 lentoasemalta (METAR- ja TAF-raportit).

Käytössä olevat sääasemat on merkitty karttaan keltaisilla ja punaisilla pisteillä.

Aseta hiiri pisteen päälle nähdäksesi sääaseman nimen.

Klikkaa sitten nähdäksesi säähavainnot ja -ennusteet.

Kartan vaihtaminen: klikkaa mustalla rastilla varustettuja vihreitä pisteitä, niin voit zoomata sisään; viivalla varustettua vihreää pistettä, niin voit zoomata ulos tai vihreitä nuolia, niin pääset viereisille kartoille.


METAR-TAF: